createdAt,value
2019-02-23T00:00:42.990Z,74.40
2019-02-23T00:01:51.143Z,63.57
2019-02-23T00:02:59.846Z,45.37
2019-02-23T00:04:08.376Z,100.20
2019-02-23T00:05:16.300Z,150.33
2019-02-23T00:06:29.893Z,118.80
2019-02-23T00:07:34.542Z,52.00
2019-02-23T00:08:42.959Z,48.93
2019-02-23T00:09:51.497Z,41.13
2019-02-23T00:10:59.901Z,31.70
2019-02-23T00:12:08.671Z,87.83
2019-02-23T00:13:16.918Z,100.00
2019-02-23T00:14:25.497Z,43.13
2019-02-23T00:15:33.501Z,33.40
2019-02-23T00:16:41.724Z,37.47
2019-02-23T00:17:49.783Z,29.30
2019-02-23T00:18:57.880Z,32.73
2019-02-23T00:20:08.845Z,68.67
2019-02-23T00:21:17.130Z,119.23
2019-02-23T00:22:25.362Z,74.70
2019-02-23T00:23:33.534Z,44.10
2019-02-23T00:24:41.690Z,59.97
2019-02-23T00:25:50.249Z,52.57
2019-02-23T00:26:58.317Z,56.33
2019-02-23T00:28:06.532Z,53.63
2019-02-23T00:29:14.785Z,95.40
2019-02-23T00:30:22.953Z,98.50
2019-02-23T00:31:31.153Z,75.30
2019-02-23T00:32:39.551Z,49.63
2019-02-23T00:33:47.995Z,59.67
2019-02-23T00:34:56.421Z,60.37
2019-02-23T00:36:05.208Z,49.83
2019-02-23T00:37:13.528Z,118.20
2019-02-23T00:38:21.697Z,108.63
2019-02-23T00:39:30.296Z,36.20
2019-02-23T00:40:38.478Z,35.03
2019-02-23T00:41:46.936Z,26.27
2019-02-23T00:42:55.836Z,48.10
2019-02-23T00:44:04.504Z,20.87
2019-02-23T00:45:12.827Z,99.80
2019-02-23T00:46:21.373Z,115.43
2019-02-23T00:47:29.949Z,20.60
2019-02-23T00:48:38.301Z,31.47
2019-02-23T00:49:46.594Z,38.03
2019-02-23T00:50:55.313Z,21.67
2019-02-23T00:52:03.583Z,38.17
2019-02-23T00:53:12.366Z,97.77
2019-02-23T00:54:20.506Z,100.53
2019-02-23T00:55:28.780Z,23.67
2019-02-23T00:56:37.278Z,27.73
2019-02-23T00:57:45.280Z,27.10
2019-02-23T00:58:54.062Z,22.63
2019-02-23T01:00:02.461Z,33.10
2019-02-23T01:01:10.535Z,59.63
2019-02-23T01:02:18.752Z,106.50
2019-02-23T01:03:27.333Z,48.73
2019-02-23T01:04:35.501Z,22.67
2019-02-23T01:05:44.328Z,53.20
2019-02-23T01:06:52.763Z,30.27
2019-02-23T01:08:01.106Z,22.37
2019-02-23T01:09:09.595Z,62.93
2019-02-23T01:10:19.440Z,108.47
2019-02-23T01:11:27.832Z,58.87
2019-02-23T01:12:36.289Z,48.57
2019-02-23T01:13:44.723Z,73.00
2019-02-23T01:14:53.022Z,55.27
2019-02-23T01:16:01.263Z,70.53
2019-02-23T01:17:10.324Z,89.53
2019-02-23T01:18:18.541Z,141.17
2019-02-23T01:19:28.893Z,84.47
2019-02-23T01:20:37.426Z,80.87
2019-02-23T01:21:45.623Z,96.07
2019-02-23T01:22:53.625Z,84.30
2019-02-23T01:24:01.835Z,96.40
2019-02-23T01:25:10.730Z,92.83
2019-02-23T01:26:19.367Z,132.03
2019-02-23T01:27:28.154Z,87.87
2019-02-23T01:28:36.683Z,66.50
2019-02-23T01:29:45.789Z,62.80
2019-02-23T01:30:54.372Z,91.57
2019-02-23T01:32:02.640Z,74.10
2019-02-23T01:33:11.205Z,79.63
2019-02-23T01:34:19.424Z,118.40
2019-02-23T01:35:28.931Z,84.30
2019-02-23T01:36:37.323Z,56.73
2019-02-23T01:37:45.578Z,76.70
2019-02-23T01:38:54.448Z,56.83
2019-02-23T01:40:03.091Z,62.17
2019-02-23T01:41:11.595Z,73.00
2019-02-23T01:42:20.103Z,125.67
2019-02-23T01:43:28.676Z,89.00
2019-02-23T01:44:36.971Z,83.17
2019-02-23T01:45:45.169Z,60.27
2019-02-23T01:46:53.928Z,60.90
2019-02-23T01:48:02.243Z,66.77
2019-02-23T01:49:10.686Z,61.53
2019-02-23T01:50:18.980Z,118.77
2019-02-23T01:51:27.499Z,105.40
2019-02-23T01:52:35.563Z,62.47
2019-02-23T01:53:43.833Z,66.23
2019-02-23T01:54:52.083Z,70.60
2019-02-23T01:56:00.821Z,48.37
2019-02-23T01:57:09.220Z,57.97
2019-02-23T01:58:17.737Z,126.10
2019-02-23T01:59:26.211Z,127.20
2019-02-23T02:00:35.701Z,66.47
2019-02-23T02:01:44.494Z,57.97
2019-02-23T02:02:52.650Z,51.50
2019-02-23T02:04:01.268Z,59.93
2019-02-23T02:05:10.134Z,88.97
2019-02-23T02:06:18.184Z,125.37
2019-02-23T02:07:26.367Z,115.63
2019-02-23T02:08:35.388Z,62.03
2019-02-23T02:09:44.304Z,78.30
2019-02-23T02:10:52.863Z,50.63
2019-02-23T02:12:01.225Z,60.63
2019-02-23T02:13:09.529Z,55.70
2019-02-23T02:14:17.563Z,132.07
2019-02-23T02:15:25.574Z,135.23
2019-02-23T02:16:33.542Z,61.63
2019-02-23T02:17:42.126Z,26.43
2019-02-23T02:18:50.214Z,25.57
2019-02-23T02:20:10.155Z,25.70
2019-02-23T02:21:08.554Z,32.50
2019-02-23T02:22:16.564Z,85.67
2019-02-23T02:23:24.950Z,93.83
2019-02-23T02:24:33.326Z,21.73
2019-02-23T02:25:41.737Z,28.13
2019-02-23T02:26:50.675Z,24.10
2019-02-23T02:27:59.005Z,17.30
2019-02-23T02:29:07.291Z,32.10
2019-02-23T02:30:15.641Z,73.30
2019-02-23T02:31:23.787Z,98.00
2019-02-23T02:32:31.828Z,57.77
2019-02-23T02:34:12.083Z,25.63
2019-02-23T02:35:20.128Z,208.70
2019-02-23T02:36:28.948Z,200.07
2019-02-23T02:37:37.390Z,118.30
2019-02-23T02:38:45.772Z,116.10
2019-02-23T02:39:54.564Z,100.27
2019-02-23T02:41:02.765Z,92.63
2019-02-23T02:42:10.860Z,104.10
2019-02-23T02:43:19.297Z,170.13
2019-02-23T02:44:27.762Z,170.07
2019-02-23T02:45:36.467Z,102.27
2019-02-23T02:46:44.516Z,104.30
2019-02-23T02:47:52.978Z,114.07
2019-02-23T02:49:00.968Z,103.03
2019-02-23T02:50:23.391Z,114.17
2019-02-23T02:51:20.791Z,158.13
2019-02-23T02:52:29.014Z,179.07
2019-02-23T02:53:37.112Z,125.10
2019-02-23T02:54:45.916Z,115.77
2019-02-23T02:55:54.373Z,123.60
2019-02-23T02:57:02.768Z,122.10
2019-02-23T02:58:10.968Z,167.27
2019-02-23T02:59:19.382Z,174.73
2019-02-23T03:00:27.336Z,182.27
2019-02-23T03:01:35.643Z,108.60
2019-02-23T03:02:44.375Z,114.00
2019-02-23T03:03:52.884Z,104.60
2019-02-23T03:05:01.202Z,102.97
2019-02-23T03:06:09.954Z,103.73
2019-02-23T03:07:18.855Z,157.30
2019-02-23T03:08:27.518Z,173.17
2019-02-23T03:09:36.118Z,109.13
2019-02-23T03:10:45.045Z,117.80
2019-02-23T03:11:53.903Z,120.23
2019-02-23T03:13:03.154Z,123.33
2019-02-23T03:14:12.189Z,125.37
2019-02-23T03:15:20.626Z,190.07
2019-02-23T03:16:29.533Z,207.10
2019-02-23T03:17:37.722Z,137.50
2019-02-23T03:18:46.241Z,157.27
2019-02-23T03:19:54.631Z,164.80
2019-02-23T03:21:03.687Z,163.17
2019-02-23T03:22:11.930Z,156.50
2019-02-23T03:23:19.992Z,203.27
2019-02-23T03:24:28.452Z,218.90
2019-02-23T03:25:36.798Z,138.63
2019-02-23T03:26:45.412Z,150.33
2019-02-23T03:27:53.772Z,151.50
2019-02-23T03:29:02.068Z,128.73
2019-02-23T03:30:12.581Z,128.00
2019-02-23T03:31:28.867Z,145.43
2019-02-23T03:32:51.502Z,120.67
2019-02-23T03:34:17.669Z,123.70
2019-02-23T03:35:35.921Z,131.30
2019-02-23T03:37:03.066Z,130.90
2019-02-23T03:38:16.421Z,128.23
2019-02-23T03:39:24.589Z,127.70
2019-02-23T03:40:32.794Z,125.57
2019-02-23T03:41:41.393Z,113.70
2019-02-23T03:42:49.800Z,110.23
2019-02-23T03:43:59.524Z,121.30
2019-02-23T03:45:08.343Z,176.50
2019-02-23T03:46:16.715Z,139.77
2019-02-23T03:47:24.960Z,120.20
2019-02-23T03:48:33.140Z,108.13
2019-02-23T03:49:41.150Z,115.93
2019-02-23T03:50:49.859Z,140.90
2019-02-23T03:51:58.463Z,117.13
2019-02-23T03:53:06.508Z,158.50
2019-02-23T03:54:14.733Z,171.43
2019-02-23T03:55:22.963Z,103.93
2019-02-23T03:56:31.153Z,103.17
2019-02-23T03:57:39.364Z,100.07
2019-02-23T03:58:47.599Z,93.90
2019-02-23T03:59:56.124Z,102.70
2019-02-23T04:01:04.146Z,171.33
2019-02-23T04:02:12.558Z,169.37
2019-02-23T04:03:20.754Z,109.63
2019-02-23T04:04:29.560Z,105.57
2019-02-23T04:05:38.010Z,102.53
2019-02-23T04:06:46.485Z,106.60
2019-02-23T04:07:54.505Z,108.90
2019-02-23T04:09:02.963Z,146.00
2019-02-23T04:10:11.330Z,170.73
2019-02-23T04:11:19.548Z,109.30
2019-02-23T04:12:27.589Z,112.47
2019-02-23T04:13:36.165Z,118.33
2019-02-23T04:14:44.492Z,120.30
2019-02-23T04:15:52.905Z,122.03
2019-02-23T04:17:01.176Z,138.93
2019-02-23T04:18:09.391Z,172.50
2019-02-23T04:19:17.504Z,126.57
2019-02-23T04:20:25.802Z,113.17
2019-02-23T04:21:33.822Z,110.03
2019-02-23T04:22:41.976Z,109.57
2019-02-23T04:23:50.072Z,112.20
2019-02-23T04:24:58.481Z,111.70
2019-02-23T04:26:06.795Z,172.80
2019-02-23T04:27:15.013Z,175.03
2019-02-23T04:28:23.606Z,116.40
2019-02-23T04:29:31.801Z,114.30
2019-02-23T04:30:40.002Z,114.53
2019-02-23T04:31:48.303Z,117.13
2019-02-23T04:32:56.372Z,112.17
2019-02-23T04:34:04.838Z,165.83
2019-02-23T04:35:13.034Z,164.40
2019-02-23T04:36:21.098Z,105.27
2019-02-23T04:37:29.831Z,99.30
2019-02-23T04:38:38.110Z,92.23
2019-02-23T04:39:46.298Z,127.17
2019-02-23T04:40:54.416Z,80.27
2019-02-23T04:42:02.403Z,117.67
2019-02-23T04:43:10.683Z,158.40
2019-02-23T04:44:19.226Z,141.63
2019-02-23T04:45:27.829Z,91.20
2019-02-23T04:46:36.125Z,103.90
2019-02-23T04:47:44.417Z,104.10
2019-02-23T04:48:52.655Z,106.20
2019-02-23T04:50:00.935Z,101.17
2019-02-23T04:51:14.511Z,187.43
2019-02-23T04:52:19.247Z,148.77
2019-02-23T04:53:27.660Z,124.40
2019-02-23T04:54:41.698Z,118.57
2019-02-23T04:55:50.596Z,122.37
2019-02-23T04:56:58.717Z,124.73
2019-02-23T04:58:06.744Z,219.10
2019-02-23T04:59:14.958Z,88.00
2019-02-23T05:00:23.965Z,31.87
2019-02-23T05:01:32.201Z,165.93
2019-02-23T05:02:40.459Z,151.97
2019-02-23T05:03:48.621Z,142.53
2019-02-23T05:04:56.699Z,134.40
2019-02-23T05:06:05.060Z,207.03
2019-02-23T05:07:13.507Z,219.53
2019-02-23T05:08:22.186Z,159.23
2019-02-23T05:09:31.102Z,135.67
2019-02-23T05:10:39.363Z,143.00
2019-02-23T05:11:47.648Z,122.50
2019-02-23T05:12:56.158Z,119.53
2019-02-23T05:14:04.201Z,177.67
2019-02-23T05:15:13.391Z,190.33
2019-02-23T05:16:21.639Z,136.97
2019-02-23T05:17:29.881Z,119.50
2019-02-23T05:18:39.921Z,127.97
2019-02-23T05:19:48.059Z,164.70
2019-02-23T05:20:56.105Z,159.87
2019-02-23T05:22:04.530Z,190.27
2019-02-23T05:23:13.837Z,197.47
2019-02-23T05:24:22.452Z,144.43
2019-02-23T05:25:31.151Z,132.33
2019-02-23T05:26:39.308Z,123.53
2019-02-23T05:27:47.810Z,119.47
2019-02-23T05:28:56.252Z,114.50
2019-02-23T05:30:04.711Z,171.67
2019-02-23T05:31:12.929Z,203.63
2019-02-23T05:32:21.287Z,172.67
2019-02-23T05:33:29.687Z,123.90
2019-02-23T05:34:37.982Z,150.57
2019-02-23T05:35:46.637Z,148.83
2019-02-23T05:36:55.093Z,157.03
2019-02-23T05:38:03.268Z,173.57
2019-02-23T05:39:11.549Z,211.63
2019-02-23T05:40:19.955Z,215.13
2019-02-23T05:41:28.460Z,163.67
2019-02-23T05:42:36.547Z,140.57
2019-02-23T05:43:44.596Z,156.57
2019-02-23T05:44:52.986Z,158.67
2019-02-23T05:46:01.067Z,144.83
2019-02-23T05:47:09.606Z,234.10
2019-02-23T05:48:19.669Z,249.47
2019-02-23T05:49:27.642Z,195.17
2019-02-23T05:50:35.917Z,172.60
2019-02-23T05:51:44.182Z,190.60
2019-02-23T05:52:52.715Z,171.40
2019-02-23T05:54:01.175Z,165.37
2019-02-23T05:55:09.329Z,263.87
2019-02-23T05:56:17.816Z,284.77
2019-02-23T05:57:26.217Z,168.10
2019-02-23T05:58:34.358Z,170.77
2019-02-23T05:59:42.755Z,177.67
2019-02-23T06:00:51.115Z,145.73
2019-02-23T06:02:00.854Z,153.70
2019-02-23T06:03:09.778Z,202.83
2019-02-23T06:04:17.974Z,208.40
2019-02-23T06:05:26.276Z,122.67
2019-02-23T06:06:34.893Z,117.40
2019-02-23T06:07:43.293Z,116.77
2019-02-23T06:08:52.096Z,104.27
2019-02-23T06:10:00.325Z,105.17
2019-02-23T06:11:08.914Z,166.63
2019-02-23T06:12:17.200Z,156.50
2019-02-23T06:13:25.193Z,98.43
2019-02-23T06:14:34.005Z,98.23
2019-02-23T06:15:42.210Z,99.23
2019-02-23T06:16:50.432Z,88.97
2019-02-23T06:17:58.728Z,86.10
2019-02-23T06:19:06.910Z,135.30
2019-02-23T06:20:15.374Z,155.23
2019-02-23T06:21:23.770Z,88.37
2019-02-23T06:22:31.912Z,77.30
2019-02-23T06:23:39.855Z,57.50
2019-02-23T06:24:48.005Z,57.27
2019-02-23T06:25:56.622Z,61.10
2019-02-23T06:27:05.419Z,83.97
2019-02-23T06:28:13.526Z,121.73
2019-02-23T06:29:22.404Z,81.50
2019-02-23T06:30:30.889Z,80.50
2019-02-23T06:31:39.343Z,71.37
2019-02-23T06:32:48.202Z,89.80
2019-02-23T06:33:56.494Z,94.97
2019-02-23T06:35:05.372Z,113.97
2019-02-23T06:36:13.891Z,145.00
2019-02-23T06:37:22.174Z,132.93
2019-02-23T06:38:31.000Z,180.43
2019-02-23T06:39:39.214Z,176.80
2019-02-23T06:40:47.522Z,143.40
2019-02-23T06:41:55.935Z,146.80
2019-02-23T06:43:04.716Z,127.00
2019-02-23T06:44:13.218Z,191.90
2019-02-23T06:45:21.421Z,230.73
2019-02-23T06:46:29.567Z,134.63
2019-02-23T06:47:38.286Z,167.10
2019-02-23T06:48:46.515Z,159.53
2019-02-23T06:49:55.236Z,156.33
2019-02-23T06:51:03.534Z,160.87
2019-02-23T06:52:11.550Z,204.67
2019-02-23T06:53:20.070Z,201.07
2019-02-23T06:54:28.618Z,117.07
2019-02-23T06:55:36.684Z,116.57
2019-02-23T06:56:44.998Z,113.27
2019-02-23T06:57:53.691Z,118.53
2019-02-23T06:59:01.891Z,126.30
2019-02-23T07:00:14.290Z,183.27
2019-02-23T07:01:22.693Z,176.37
2019-02-23T07:02:31.547Z,135.73
2019-02-23T07:03:39.770Z,127.70
2019-02-23T07:04:48.278Z,152.17
2019-02-23T07:05:57.123Z,127.00
2019-02-23T07:07:05.602Z,133.40
2019-02-23T07:08:14.863Z,203.57
2019-02-23T07:09:23.268Z,180.33
2019-02-23T07:10:31.543Z,113.87
2019-02-23T07:11:40.334Z,129.93
2019-02-23T07:12:49.108Z,142.27
2019-02-23T07:13:57.618Z,127.77
2019-02-23T07:15:08.997Z,133.10
2019-02-23T07:16:19.038Z,209.27
2019-02-23T07:17:33.521Z,120.07
2019-02-23T07:18:45.492Z,120.50
2019-02-23T07:20:02.033Z,116.87
2019-02-23T07:21:18.965Z,160.93
2019-02-23T07:22:33.782Z,130.33
2019-02-23T07:23:51.280Z,127.10
2019-02-23T07:25:00.549Z,136.03
2019-02-23T07:26:09.336Z,167.57
2019-02-23T07:27:17.623Z,209.67
2019-02-23T07:28:25.922Z,152.00
2019-02-23T07:29:35.803Z,117.83
2019-02-23T07:30:44.382Z,129.87
2019-02-23T07:32:02.260Z,146.43
2019-02-23T07:33:32.073Z,213.07
2019-02-23T07:34:28.781Z,180.17
2019-02-23T07:35:52.774Z,127.57
2019-02-23T07:37:12.946Z,127.33
2019-02-23T07:38:21.383Z,171.17
2019-02-23T07:39:30.098Z,130.00
2019-02-23T07:40:38.833Z,125.53
2019-02-23T07:42:19.876Z,122.50
2019-02-23T07:43:54.974Z,147.50
2019-02-23T07:45:13.587Z,121.60
2019-02-23T07:46:25.466Z,196.27
2019-02-23T07:47:35.237Z,129.97
2019-02-23T07:48:44.611Z,108.87
2019-02-23T07:49:53.907Z,111.57
2019-02-23T07:51:04.196Z,108.07
2019-02-23T07:52:25.962Z,123.23
2019-02-23T07:53:28.297Z,138.27
2019-02-23T07:54:39.760Z,110.23
2019-02-23T07:55:54.892Z,109.20
2019-02-23T07:57:07.335Z,108.43
2019-02-23T07:58:15.916Z,155.67
2019-02-23T07:59:24.226Z,173.07
2019-02-23T08:00:38.384Z,126.07
2019-02-23T08:01:47.480Z,109.03
2019-02-23T08:02:56.389Z,126.70
2019-02-23T08:04:12.820Z,126.03
2019-02-23T08:05:25.329Z,173.93
2019-02-23T08:06:34.229Z,109.77
2019-02-23T08:07:43.697Z,114.47
2019-02-23T08:08:53.781Z,127.03
2019-02-23T08:10:05.615Z,145.67
2019-02-23T08:11:15.326Z,159.47
2019-02-23T08:12:23.799Z,168.70
2019-02-23T08:13:34.094Z,106.60
2019-02-23T08:14:42.820Z,117.47
2019-02-23T08:15:51.942Z,122.17
2019-02-23T08:17:00.478Z,125.43
2019-02-23T08:18:10.367Z,133.70
2019-02-23T08:19:19.208Z,199.83
2019-02-23T08:20:27.630Z,186.53
2019-02-23T08:21:35.855Z,115.63
2019-02-23T08:22:44.393Z,111.07
2019-02-23T08:23:56.583Z,121.80
2019-02-23T08:25:07.126Z,127.63
2019-02-23T08:26:15.280Z,188.63
2019-02-23T08:27:23.251Z,223.23
2019-02-23T08:28:32.031Z,164.00
2019-02-23T08:29:43.099Z,132.43
2019-02-23T08:30:53.137Z,119.43
2019-02-23T08:32:07.694Z,115.33
2019-02-23T08:33:19.660Z,195.83
2019-02-23T08:34:39.878Z,195.80
2019-02-23T08:35:52.784Z,95.33
2019-02-23T08:37:00.985Z,106.07
2019-02-23T08:38:09.063Z,104.93
2019-02-23T08:39:24.865Z,101.80
2019-02-23T08:40:39.202Z,90.33
2019-02-23T08:41:49.207Z,95.73
2019-02-23T08:43:15.465Z,85.97
2019-02-23T08:44:33.896Z,133.73
2019-02-23T08:45:41.063Z,51.07
2019-02-23T08:46:49.654Z,79.37
2019-02-23T08:48:02.092Z,50.40
2019-02-23T08:49:14.969Z,82.37
2019-02-23T08:50:29.794Z,137.57
2019-02-23T08:51:47.503Z,52.83
2019-02-23T08:53:01.651Z,49.67
2019-02-23T08:54:10.268Z,62.70
2019-02-23T08:55:18.958Z,92.33
2019-02-23T08:56:27.057Z,111.43
2019-02-23T08:57:35.094Z,46.97
2019-02-23T08:58:43.043Z,47.93
2019-02-23T08:59:50.972Z,40.13
2019-02-23T09:00:59.099Z,17.20
2019-02-23T09:02:07.579Z,21.33
2019-02-23T09:03:15.543Z,26.00
2019-02-23T09:04:24.050Z,86.10
2019-02-23T09:05:32.101Z,81.03
2019-02-23T09:06:40.640Z,53.20
2019-02-23T09:07:49.049Z,43.10
2019-02-23T09:08:57.046Z,24.80
2019-02-23T09:10:07.292Z,20.37
2019-02-23T09:11:15.457Z,17.97
2019-02-23T09:12:23.467Z,82.30
2019-02-23T09:13:31.818Z,78.83
2019-02-23T09:14:39.879Z,8.67
2019-02-23T09:15:47.778Z,16.80
2019-02-23T09:16:55.811Z,16.00
2019-02-23T09:18:04.175Z,16.67
2019-02-23T09:19:12.069Z,10.90
2019-02-23T09:20:28.720Z,62.70
2019-02-23T09:21:29.897Z,82.33
2019-02-23T09:22:38.034Z,10.83
2019-02-23T09:23:46.596Z,37.83
2019-02-23T09:24:54.519Z,13.10
2019-02-23T09:26:02.720Z,11.60
2019-02-23T09:27:10.936Z,11.00
2019-02-23T09:28:19.100Z,43.77
2019-02-23T09:29:27.280Z,77.37
2019-02-23T09:30:35.749Z,61.43
2019-02-23T09:31:43.953Z,10.90
2019-02-23T09:32:51.961Z,6.50
2019-02-23T09:34:00.011Z,21.00
2019-02-23T09:35:08.208Z,12.30
2019-02-23T09:36:16.290Z,36.10
2019-02-23T09:37:24.832Z,81.70
2019-02-23T09:38:33.003Z,87.03
2019-02-23T09:39:41.254Z,14.53
2019-02-23T09:40:49.182Z,19.03
2019-02-23T09:42:07.034Z,10.10
2019-02-23T09:43:07.132Z,12.27
2019-02-23T09:44:15.073Z,13.10
2019-02-23T09:45:23.429Z,78.03
2019-02-23T09:46:31.388Z,78.87
2019-02-23T09:47:39.465Z,21.90
2019-02-23T09:48:47.715Z,17.13
2019-02-23T09:49:56.183Z,13.83
2019-02-23T09:51:11.003Z,3.40
2019-02-23T09:52:22.128Z,61.47
2019-02-23T09:53:30.360Z,93.83
2019-02-23T09:54:38.659Z,57.67
2019-02-23T09:55:46.539Z,11.17
2019-02-23T09:56:54.622Z,11.27
2019-02-23T09:58:02.938Z,8.10
2019-02-23T09:59:16.332Z,7.17
2019-02-23T10:00:30.033Z,74.83
2019-02-23T10:01:38.082Z,45.20
2019-02-23T10:02:47.329Z,11.03
2019-02-23T10:04:00.399Z,5.40
2019-02-23T10:05:18.472Z,9.67
2019-02-23T10:06:27.677Z,74.23
2019-02-23T10:07:36.595Z,88.30
2019-02-23T10:08:48.501Z,36.67
2019-02-23T10:10:03.565Z,32.23
2019-02-23T10:11:17.238Z,26.47
2019-02-23T10:12:28.007Z,89.30
2019-02-23T10:13:42.399Z,81.77
2019-02-23T10:14:54.572Z,25.10
2019-02-23T10:16:05.876Z,19.50
2019-02-23T10:17:14.477Z,31.03
2019-02-23T10:18:23.835Z,36.23
2019-02-23T10:19:53.220Z,104.83
2019-02-23T10:21:05.867Z,44.73
2019-02-23T10:22:14.018Z,15.67
2019-02-23T10:23:22.569Z,41.93
2019-02-23T10:24:30.891Z,87.13
2019-02-23T10:25:39.035Z,76.90
2019-02-23T10:26:47.535Z,24.10
2019-02-23T10:27:55.803Z,18.20
2019-02-23T10:29:04.188Z,24.17
2019-02-23T10:30:22.299Z,20.27
2019-02-23T10:31:33.069Z,90.30
2019-02-23T10:32:46.723Z,77.03
2019-02-23T10:34:03.812Z,21.97
2019-02-23T10:35:24.672Z,23.03
2019-02-23T10:36:33.325Z,86.00
2019-02-23T10:37:42.235Z,47.63
2019-02-23T10:38:57.827Z,30.50
2019-02-23T10:40:06.662Z,22.30
2019-02-23T10:41:14.877Z,23.67
2019-02-23T10:42:23.232Z,26.70
2019-02-23T10:43:31.845Z,92.67
2019-02-23T10:44:40.036Z,82.27
2019-02-23T10:45:48.240Z,21.53
2019-02-23T10:46:56.842Z,19.13
2019-02-23T10:48:05.814Z,22.70
2019-02-23T10:49:14.910Z,12.87
2019-02-23T10:50:29.482Z,36.50
2019-02-23T10:51:44.152Z,88.70
2019-02-23T10:53:05.112Z,6.43
2019-02-23T10:54:25.801Z,6.23
2019-02-23T10:55:34.203Z,73.63
2019-02-23T10:56:44.539Z,74.77
2019-02-23T10:57:56.803Z,18.43
2019-02-23T10:59:24.050Z,11.70
2019-02-23T11:00:37.245Z,93.93
2019-02-23T11:01:55.791Z,95.50
2019-02-23T11:03:07.411Z,6.10
2019-02-23T11:04:27.420Z,4.07
2019-02-23T11:05:46.001Z,87.83
2019-02-23T11:07:01.442Z,3.90
2019-02-23T11:08:27.352Z,5.93
2019-02-23T11:09:37.746Z,50.13
2019-02-23T11:10:52.955Z,11.43
2019-02-23T11:12:11.059Z,16.03
2019-02-23T11:13:39.285Z,3.83
2019-02-23T11:14:57.207Z,36.67
2019-02-23T11:17:44.921Z,85.27
2019-02-23T11:19:28.016Z,6.60
2019-02-23T11:21:09.052Z,90.47
2019-02-23T11:22:23.518Z,21.67
2019-02-23T11:23:43.918Z,75.60
2019-02-23T11:24:45.140Z,42.40
2019-02-23T11:25:54.174Z,23.23
2019-02-23T11:27:21.745Z,18.63
2019-02-23T11:28:31.540Z,28.40
2019-02-23T11:29:51.207Z,67.13
2019-02-23T11:31:32.453Z,75.23
2019-02-23T11:35:18.046Z,15.47
2019-02-23T11:39:02.382Z,76.30
2019-02-23T11:41:13.480Z,16.47
2019-02-23T11:42:36.057Z,51.73
2019-02-23T11:43:56.894Z,64.37
2019-02-23T11:45:08.784Z,11.80
2019-02-23T11:46:27.320Z,8.90
2019-02-23T11:47:43.204Z,78.67
2019-02-23T11:49:08.127Z,23.73
2019-02-23T11:50:36.991Z,15.17
2019-02-23T11:51:49.272Z,105.50
2019-02-23T11:53:05.271Z,14.60
2019-02-23T11:54:35.538Z,13.63
2019-02-23T11:55:45.708Z,64.43
2019-02-23T11:56:54.494Z,30.43
2019-02-23T11:58:04.770Z,11.83
2019-02-23T12:01:42.131Z,11.40
2019-02-23T12:02:58.777Z,81.97
2019-02-23T12:04:11.592Z,2.00
2019-02-23T12:05:25.942Z,11.47
2019-02-23T12:06:34.705Z,51.07
2019-02-23T12:07:46.591Z,64.37
2019-02-23T12:09:04.224Z,9.57
2019-02-23T12:10:24.213Z,3.43
2019-02-23T12:11:35.811Z,64.70
2019-02-23T12:12:44.184Z,82.90
2019-02-23T12:13:52.356Z,31.40
2019-02-23T12:15:00.475Z,15.30
2019-02-23T12:16:08.958Z,14.77
2019-02-23T12:17:27.107Z,6.60
2019-02-23T12:18:49.663Z,47.57
2019-02-23T12:20:00.496Z,7.93
2019-02-23T12:21:15.102Z,7.23
2019-02-23T12:22:37.015Z,4.77
2019-02-23T12:23:47.213Z,65.03
2019-02-23T12:24:57.388Z,6.77
2019-02-23T12:26:11.423Z,2.43
2019-02-23T12:27:36.139Z,4.57
2019-02-23T12:28:52.512Z,77.07
2019-02-23T12:30:16.124Z,28.30
2019-02-23T12:31:51.996Z,6.53
2019-02-23T12:33:02.430Z,19.27
2019-02-23T12:34:19.770Z,4.83
2019-02-23T12:35:56.781Z,22.37
2019-02-23T12:37:19.587Z,14.87
2019-02-23T12:38:36.389Z,9.17
2019-02-23T12:39:45.346Z,62.17
2019-02-23T12:40:57.743Z,27.27
2019-02-23T12:42:11.635Z,16.93
2019-02-23T12:43:41.691Z,47.00
2019-02-23T12:44:44.897Z,65.37
2019-02-23T12:45:53.101Z,30.80
2019-02-23T12:47:01.488Z,14.83
2019-02-23T12:48:31.390Z,8.30
2019-02-23T12:49:48.112Z,66.23
2019-02-23T12:51:12.331Z,34.33
2019-02-23T12:52:18.912Z,11.00
2019-02-23T12:53:27.225Z,12.03
2019-02-23T12:54:45.110Z,20.60
2019-02-23T12:55:58.395Z,30.47
2019-02-23T12:57:16.398Z,4.50
2019-02-23T12:58:32.499Z,2.87
2019-02-23T12:59:57.511Z,73.67
2019-02-23T13:01:12.219Z,11.33
2019-02-23T13:02:34.866Z,16.93
2019-02-23T13:03:47.834Z,19.87
2019-02-23T13:05:22.235Z,13.77
2019-02-23T13:06:39.272Z,20.13
2019-02-23T13:08:09.203Z,13.57
2019-02-23T13:09:33.379Z,16.47
2019-02-23T13:10:45.803Z,65.87
2019-02-23T13:12:17.521Z,60.47
2019-02-23T13:14:18.769Z,58.83
2019-02-23T13:16:27.196Z,44.40
2019-02-23T13:18:13.654Z,46.77
2019-02-23T13:19:49.562Z,20.63
2019-02-23T13:21:22.536Z,69.07
2019-02-23T13:23:05.021Z,23.77
2019-02-23T13:24:37.892Z,17.27
2019-02-23T13:26:58.348Z,75.40
2019-02-23T13:31:07.831Z,58.37
2019-02-23T13:32:26.330Z,26.50
2019-02-23T13:34:12.062Z,21.83
2019-02-23T13:35:51.119Z,25.63
2019-02-23T13:37:32.323Z,63.13
2019-02-23T13:39:17.624Z,64.50
2019-02-23T13:43:06.547Z,69.07
2019-02-23T13:45:24.632Z,37.60
2019-02-23T13:47:13.360Z,15.40
2019-02-23T13:48:55.019Z,19.60
2019-02-23T13:50:29.024Z,41.57
2019-02-23T13:52:11.357Z,19.77
2019-02-23T13:53:44.339Z,19.40
2019-02-23T13:55:02.423Z,64.37
2019-02-23T13:56:42.499Z,11.80
2019-02-23T13:58:08.731Z,63.57
2019-02-23T13:59:36.600Z,24.23
2019-02-23T14:01:24.954Z,55.47
2019-02-23T14:03:13.397Z,14.90
2019-02-23T14:04:50.854Z,22.90
2019-02-23T14:09:06.581Z,23.43
2019-02-23T14:14:22.870Z,37.03
2019-02-23T14:16:13.293Z,19.57
2019-02-23T14:17:50.136Z,26.27
2019-02-23T14:19:17.847Z,63.73
2019-02-23T14:20:46.581Z,14.00
2019-02-23T14:22:10.833Z,66.53
2019-02-23T14:23:40.640Z,16.70
2019-02-23T14:25:10.972Z,28.77
2019-02-23T14:26:57.835Z,16.93
2019-02-23T14:28:16.129Z,54.87
2019-02-23T14:29:46.442Z,19.97
2019-02-23T14:31:07.850Z,59.50
2019-02-23T14:32:43.098Z,26.10
2019-02-23T14:34:04.817Z,53.03
2019-02-23T14:35:47.837Z,21.50
2019-02-23T14:37:21.059Z,66.80
2019-02-23T14:39:00.043Z,22.87
2019-02-23T14:40:54.687Z,58.77
2019-02-23T14:42:41.327Z,69.63
2019-02-23T14:44:14.613Z,19.90
2019-02-23T14:45:44.290Z,19.37
2019-02-23T14:47:15.249Z,24.47
2019-02-23T14:49:02.552Z,16.53
2019-02-23T14:50:32.856Z,51.13
2019-02-23T14:52:13.255Z,15.20
2019-02-23T14:53:34.776Z,17.43
2019-02-23T14:55:00.645Z,18.43
2019-02-23T14:56:25.225Z,61.50
2019-02-23T14:57:55.522Z,15.23
2019-02-23T14:59:31.081Z,71.63
2019-02-23T15:01:16.519Z,19.53
2019-02-23T15:02:48.395Z,13.10
2019-02-23T15:04:16.370Z,23.10
2019-02-23T15:06:00.519Z,7.97
2019-02-23T15:08:01.466Z,63.10
2019-02-23T15:09:42.655Z,61.20
2019-02-23T15:11:09.819Z,28.03
2019-02-23T15:13:01.402Z,21.57
2019-02-23T15:14:19.075Z,76.57
2019-02-23T15:15:34.475Z,6.00
2019-02-23T15:17:20.002Z,11.23
2019-02-23T15:18:41.726Z,34.87
2019-02-23T15:20:02.764Z,15.07
2019-02-23T15:21:33.309Z,57.93
2019-02-23T15:22:55.007Z,13.83
2019-02-23T15:24:29.717Z,50.10
2019-02-23T15:26:06.379Z,25.97
2019-02-23T15:27:37.043Z,60.40
2019-02-23T15:29:27.112Z,5.73
2019-02-23T15:30:45.218Z,7.47
2019-02-23T15:32:14.862Z,9.47
2019-02-23T15:33:57.027Z,27.17
2019-02-23T15:35:18.189Z,59.43
2019-02-23T15:37:00.905Z,14.63
2019-02-23T15:38:46.257Z,84.57
2019-02-23T15:40:10.741Z,10.67
2019-02-23T15:41:54.738Z,44.10
2019-02-23T15:43:19.056Z,55.00
2019-02-23T15:45:01.431Z,20.83
2019-02-23T15:46:14.931Z,83.00
2019-02-23T15:47:36.896Z,11.97
2019-02-23T15:49:10.764Z,18.40
2019-02-23T15:50:18.906Z,45.70
2019-02-23T15:51:27.358Z,33.47
2019-02-23T15:52:36.027Z,9.57
2019-02-23T15:53:44.559Z,16.37
2019-02-23T15:54:52.976Z,12.53
2019-02-23T15:56:01.501Z,27.30
2019-02-23T15:57:10.207Z,61.30
2019-02-23T15:58:18.799Z,50.20
2019-02-23T15:59:27.202Z,15.20